Dream Angel — 3EEV — position and weather

sailwx.info

Track history (hours):
 
Tides and Currents Weather Stations Pressure Air Temp Water Temp Dewpoint Dewpoint Depression Visibility Wind Speed Wind Dir Waves Ship Positions

Dream Angel

Last reported at 2016-Aug-16 15:30 UTC. Time now 2016-Aug-25 09:42 UTC.
Position S 36°09' E 174°57'.
Warning: this ship's position is 8 days out of date.

Length 187 m; draft 6.9 m.

Type: Cargo ship. MMSI: 371820000.

Date/timePositionNaut miles runAvg speedWind from/ knotsBaromVisibWave heightAir tempDewpointWater temp
2016-Aug-16 15:30S 36°09' E 174°57'1010.4
2016-Aug-16 14:33S 36°19' E 174°59'10 9.7
2016-Aug-16 13:33S 36°28' E 175°03'10 9.8
2016-Aug-16 12:34S 36°37' E 174°58'10 9.9
2016-Aug-16 11:33S 36°45' E 174°50'6 6.2
2016-Aug-16 10:32S 36°50' E 174°46'0 0.0
2016-Aug-16 09:32S 36°50' E 174°46'0 0.0
2016-Aug-16 08:32S 36°50' E 174°46'0 0.0
2016-Aug-16 07:32S 36°50' E 174°46'0 0.0
2016-Aug-16 04:32S 36°50' E 174°46'0 0.0
2016-Aug-16 03:32S 36°50' E 174°46'0 0.0
2016-Aug-16 02:32S 36°50' E 174°46'0 0.0
2016-Aug-16 01:32S 36°50' E 174°46'0 0.0
2016-Aug-16 00:32S 36°50' E 174°46'0 0.0
2016-Aug-15 23:32S 36°50' E 174°46'0 0.0
2016-Aug-15 22:32S 36°50' E 174°46'0 0.0
2016-Aug-15 21:32S 36°50' E 174°46'0 0.0
2016-Aug-15 20:32S 36°50' E 174°46'0 0.0
2016-Aug-15 19:26S 36°50' E 174°46'0 0.0
2016-Aug-15 18:32S 36°50' E 174°46'0 0.0
2016-Aug-15 17:32S 36°50' E 174°46'0 0.0
2016-Aug-15 16:32S 36°50' E 174°46'0 0.0
2016-Aug-15 15:32S 36°50' E 174°46'0 0.0
2016-Aug-15 14:32S 36°50' E 174°46'0 0.0
2016-Aug-15 13:32S 36°50' E 174°46'0 0.0
2016-Aug-15 12:32S 36°50' E 174°46'0 0.2
2016-Aug-15 11:33S 36°50' E 174°47'7 7.3
2016-Aug-15 10:33S 36°44' E 174°50'2 2.5
2016-Aug-15 09:33S 36°42' E 174°53'5 5.2
2016-Aug-15 08:34S 36°38' E 174°57'5 5.2
2016-Aug-15 07:33S 36°33' E 175°00'6 5.6
2016-Aug-15 06:33S 36°28' E 175°03'14 7.2
2016-Aug-15 04:34S 36°15' E 174°56'  
Track history (hours):
 
Tides and Currents Weather Stations Pressure Air Temp Water Temp Dewpoint Dewpoint Depression Visibility Wind Speed Wind Dir Waves Ship Positions

Dream Angel

Last reported at 2016-Aug-16 15:30 UTC. Time now 2016-Aug-25 09:42 UTC.
Position S 36°09' E 174°57'.
Warning: this ship's position is 8 days out of date.

Length 187 m; draft 6.9 m.

Type: Cargo ship. MMSI: 371820000.

Date/timePositionNaut miles runAvg speedWind from/ knotsBaromVisibWave heightAir tempDewpointWater temp
2016-Aug-16 15:30S 36°09' E 174°57'1010.4
2016-Aug-16 14:33S 36°19' E 174°59'10 9.7
2016-Aug-16 13:33S 36°28' E 175°03'10 9.8
2016-Aug-16 12:34S 36°37' E 174°58'10 9.9
2016-Aug-16 11:33S 36°45' E 174°50'6 6.2
2016-Aug-16 10:32S 36°50' E 174°46'0 0.0
2016-Aug-16 09:32S 36°50' E 174°46'0 0.0
2016-Aug-16 08:32S 36°50' E 174°46'0 0.0
2016-Aug-16 07:32S 36°50' E 174°46'0 0.0
2016-Aug-16 04:32S 36°50' E 174°46'0 0.0
2016-Aug-16 03:32S 36°50' E 174°46'0 0.0
2016-Aug-16 02:32S 36°50' E 174°46'0 0.0
2016-Aug-16 01:32S 36°50' E 174°46'0 0.0
2016-Aug-16 00:32S 36°50' E 174°46'0 0.0
2016-Aug-15 23:32S 36°50' E 174°46'0 0.0
2016-Aug-15 22:32S 36°50' E 174°46'0 0.0
2016-Aug-15 21:32S 36°50' E 174°46'0 0.0
2016-Aug-15 20:32S 36°50' E 174°46'0 0.0
2016-Aug-15 19:26S 36°50' E 174°46'0 0.0
2016-Aug-15 18:32S 36°50' E 174°46'0 0.0
2016-Aug-15 17:32S 36°50' E 174°46'0 0.0
2016-Aug-15 16:32S 36°50' E 174°46'0 0.0
2016-Aug-15 15:32S 36°50' E 174°46'0 0.0
2016-Aug-15 14:32S 36°50' E 174°46'0 0.0
2016-Aug-15 13:32S 36°50' E 174°46'0 0.0
2016-Aug-15 12:32S 36°50' E 174°46'0 0.2
2016-Aug-15 11:33S 36°50' E 174°47'7 7.3
2016-Aug-15 10:33S 36°44' E 174°50'2 2.5
2016-Aug-15 09:33S 36°42' E 174°53'5 5.2
2016-Aug-15 08:34S 36°38' E 174°57'5 5.2
2016-Aug-15 07:33S 36°33' E 175°00'6 5.6
2016-Aug-15 06:33S 36°28' E 175°03'14 7.2
2016-Aug-15 04:34S 36°15' E 174°56'  

Dump ship's entire track history